sensor_id;sensor_type;location;lat;lon;timestamp;P1;durP1;ratioP1;P2;durP2;ratioP2
45548;SDS011;31270;48.328;10.096;2023-12-07T00:01:28;16.07;;;11.10;;
45548;SDS011;31270;48.328;10.096;2023-12-07T00:03:53;18.47;;;11.03;;
45548;SDS011;31270;48.328;10.096;2023-12-07T00:06:19;15.70;;;10.37;;
45548;SDS011;31270;48.328;10.096;2023-12-07T00:08:44;17.60;;;11.10;;
45548;SDS011;31270;48.328;10.096;2023-12-07T00:11:10;17.00;;;10.67;;
45548;SDS011;31270;48.328;10.096;2023-12-07T00:13:35;17.77;;;10.83;;
45548;SDS011;31270;48.328;10.096;2023-12-07T00:16:01;16.93;;;11.17;;
45548;SDS011;31270;48.328;10.096;2023-12-07T00:18:27;16.07;;;10.63;;
45548;SDS011;31270;48.328;10.096;2023-12-07T00:20:52;16.53;;;10.73;;
45548;SDS011;31270;48.328;10.096;2023-12-07T00:23:18;16.00;;;10.03;;
45548;SDS011;31270;48.328;10.096;2023-12-07T00:25:44;18.90;;;11.07;;
45548;SDS011;31270;48.328;10.096;2023-12-07T00:28:11;22.30;;;10.83;;
45548;SDS011;31270;48.328;10.096;2023-12-07T00:30:36;16.37;;;9.93;;
45548;SDS011;31270;48.328;10.096;2023-12-07T00:33:02;16.60;;;10.20;;
45548;SDS011;31270;48.328;10.096;2023-12-07T00:35:27;15.23;;;9.77;;
45548;SDS011;31270;48.328;10.096;2023-12-07T00:37:54;17.00;;;10.00;;
45548;SDS011;31270;48.328;10.096;2023-12-07T00:40:21;18.23;;;10.77;;
45548;SDS011;31270;48.328;10.096;2023-12-07T00:42:47;18.33;;;11.17;;
45548;SDS011;31270;48.328;10.096;2023-12-07T00:45:13;16.80;;;10.67;;
45548;SDS011;31270;48.328;10.096;2023-12-07T00:47:39;15.27;;;10.23;;
45548;SDS011;31270;48.328;10.096;2023-12-07T00:50:05;16.20;;;10.57;;
45548;SDS011;31270;48.328;10.096;2023-12-07T00:52:30;17.57;;;10.60;;
45548;SDS011;31270;48.328;10.096;2023-12-07T00:54:56;18.43;;;10.83;;
45548;SDS011;31270;48.328;10.096;2023-12-07T00:57:22;17.23;;;11.37;;
45548;SDS011;31270;48.328;10.096;2023-12-07T00:59:47;15.20;;;10.43;;
45548;SDS011;31270;48.328;10.096;2023-12-07T01:02:13;17.90;;;10.13;;
45548;SDS011;31270;48.328;10.096;2023-12-07T01:04:39;18.90;;;10.70;;
45548;SDS011;31270;48.328;10.096;2023-12-07T01:07:04;19.80;;;11.03;;
45548;SDS011;31270;48.328;10.096;2023-12-07T01:09:30;25.13;;;16.67;;
45548;SDS011;31270;48.328;10.096;2023-12-07T01:11:56;47.00;;;30.37;;
45548;SDS011;31270;48.328;10.096;2023-12-07T01:14:23;31.40;;;20.50;;
45548;SDS011;31270;48.328;10.096;2023-12-07T01:16:49;27.80;;;17.63;;
45548;SDS011;31270;48.328;10.096;2023-12-07T01:19:14;24.63;;;15.97;;
45548;SDS011;31270;48.328;10.096;2023-12-07T01:21:40;21.93;;;13.17;;
45548;SDS011;31270;48.328;10.096;2023-12-07T01:24:07;19.60;;;11.70;;
45548;SDS011;31270;48.328;10.096;2023-12-07T01:26:33;26.17;;;16.83;;
45548;SDS011;31270;48.328;10.096;2023-12-07T01:28:58;22.43;;;15.07;;
45548;SDS011;31270;48.328;10.096;2023-12-07T01:31:24;24.70;;;17.50;;
45548;SDS011;31270;48.328;10.096;2023-12-07T01:33:50;25.03;;;15.73;;
45548;SDS011;31270;48.328;10.096;2023-12-07T01:36:15;26.70;;;17.97;;
45548;SDS011;31270;48.328;10.096;2023-12-07T01:38:41;26.03;;;15.90;;
45548;SDS011;31270;48.328;10.096;2023-12-07T01:41:08;31.07;;;19.60;;
45548;SDS011;31270;48.328;10.096;2023-12-07T01:43:34;29.37;;;16.97;;
45548;SDS011;31270;48.328;10.096;2023-12-07T01:45:59;29.90;;;19.40;;
45548;SDS011;31270;48.328;10.096;2023-12-07T01:48:26;31.47;;;17.33;;
45548;SDS011;31270;48.328;10.096;2023-12-07T01:50:53;24.83;;;15.17;;
45548;SDS011;31270;48.328;10.096;2023-12-07T01:53:21;21.13;;;12.37;;
45548;SDS011;31270;48.328;10.096;2023-12-07T01:55:47;22.57;;;13.33;;
45548;SDS011;31270;48.328;10.096;2023-12-07T01:58:14;26.43;;;14.80;;
45548;SDS011;31270;48.328;10.096;2023-12-07T02:00:42;20.03;;;13.57;;
45548;SDS011;31270;48.328;10.096;2023-12-07T02:03:07;19.40;;;12.93;;
45548;SDS011;31270;48.328;10.096;2023-12-07T02:05:33;24.07;;;13.50;;
45548;SDS011;31270;48.328;10.096;2023-12-07T02:08:00;23.37;;;13.90;;
45548;SDS011;31270;48.328;10.096;2023-12-07T02:10:26;21.40;;;13.07;;
45548;SDS011;31270;48.328;10.096;2023-12-07T02:12:51;22.10;;;13.40;;
45548;SDS011;31270;48.328;10.096;2023-12-07T02:15:18;21.50;;;12.73;;
45548;SDS011;31270;48.328;10.096;2023-12-07T02:20:21;18.17;;;12.07;;
45548;SDS011;31270;48.328;10.096;2023-12-07T02:22:56;22.37;;;13.13;;
45548;SDS011;31270;48.328;10.096;2023-12-07T02:25:29;22.00;;;12.90;;
45548;SDS011;31270;48.328;10.096;2023-12-07T02:28:06;20.83;;;12.83;;
45548;SDS011;31270;48.328;10.096;2023-12-07T02:30:31;21.90;;;13.37;;
45548;SDS011;31270;48.328;10.096;2023-12-07T02:32:57;26.73;;;13.40;;
45548;SDS011;31270;48.328;10.096;2023-12-07T02:35:23;23.47;;;13.07;;
45548;SDS011;31270;48.328;10.096;2023-12-07T02:37:50;18.33;;;12.47;;
45548;SDS011;31270;48.328;10.096;2023-12-07T02:40:18;20.43;;;12.57;;
45548;SDS011;31270;48.328;10.096;2023-12-07T02:42:48;27.97;;;13.97;;
45548;SDS011;31270;48.328;10.096;2023-12-07T02:45:15;20.13;;;12.27;;
45548;SDS011;31270;48.328;10.096;2023-12-07T02:47:41;19.83;;;12.03;;
45548;SDS011;31270;48.328;10.096;2023-12-07T02:50:08;22.67;;;13.13;;
45548;SDS011;31270;48.328;10.096;2023-12-07T02:52:34;19.63;;;12.17;;
45548;SDS011;31270;48.328;10.096;2023-12-07T02:55:00;23.43;;;12.93;;
45548;SDS011;31270;48.328;10.096;2023-12-07T02:57:30;20.03;;;12.00;;
45548;SDS011;31270;48.328;10.096;2023-12-07T02:59:56;21.73;;;12.33;;
45548;SDS011;31270;48.328;10.096;2023-12-07T03:02:22;21.00;;;12.90;;
45548;SDS011;31270;48.328;10.096;2023-12-07T03:04:47;20.37;;;12.40;;
45548;SDS011;31270;48.328;10.096;2023-12-07T03:07:13;20.23;;;13.10;;
45548;SDS011;31270;48.328;10.096;2023-12-07T03:09:39;24.80;;;13.03;;
45548;SDS011;31270;48.328;10.096;2023-12-07T03:12:04;20.97;;;12.17;;
45548;SDS011;31270;48.328;10.096;2023-12-07T03:14:31;19.80;;;11.80;;
45548;SDS011;31270;48.328;10.096;2023-12-07T03:16:56;18.83;;;11.90;;
45548;SDS011;31270;48.328;10.096;2023-12-07T03:19:22;19.70;;;12.57;;
45548;SDS011;31270;48.328;10.096;2023-12-07T03:21:47;20.33;;;13.27;;
45548;SDS011;31270;48.328;10.096;2023-12-07T03:24:13;25.60;;;13.60;;
45548;SDS011;31270;48.328;10.096;2023-12-07T03:26:39;21.73;;;12.33;;
45548;SDS011;31270;48.328;10.096;2023-12-07T03:29:05;21.17;;;13.80;;
45548;SDS011;31270;48.328;10.096;2023-12-07T03:31:30;22.40;;;13.00;;
45548;SDS011;31270;48.328;10.096;2023-12-07T03:33:56;20.80;;;13.37;;
45548;SDS011;31270;48.328;10.096;2023-12-07T03:36:22;19.93;;;11.93;;
45548;SDS011;31270;48.328;10.096;2023-12-07T03:38:48;22.87;;;12.33;;
45548;SDS011;31270;48.328;10.096;2023-12-07T03:41:14;21.70;;;12.60;;
45548;SDS011;31270;48.328;10.096;2023-12-07T03:43:40;20.00;;;12.83;;
45548;SDS011;31270;48.328;10.096;2023-12-07T03:46:06;23.37;;;13.00;;
45548;SDS011;31270;48.328;10.096;2023-12-07T03:48:33;21.27;;;13.17;;
45548;SDS011;31270;48.328;10.096;2023-12-07T03:50:59;22.90;;;13.57;;
45548;SDS011;31270;48.328;10.096;2023-12-07T03:53:25;20.13;;;13.00;;
45548;SDS011;31270;48.328;10.096;2023-12-07T03:55:51;24.17;;;13.03;;
45548;SDS011;31270;48.328;10.096;2023-12-07T03:58:17;24.87;;;15.23;;
45548;SDS011;31270;48.328;10.096;2023-12-07T04:00:43;25.57;;;16.67;;
45548;SDS011;31270;48.328;10.096;2023-12-07T04:03:09;24.73;;;16.50;;
45548;SDS011;31270;48.328;10.096;2023-12-07T04:05:35;22.83;;;15.07;;
45548;SDS011;31270;48.328;10.096;2023-12-07T04:08:00;20.27;;;12.27;;
45548;SDS011;31270;48.328;10.096;2023-12-07T04:10:26;20.47;;;12.60;;
45548;SDS011;31270;48.328;10.096;2023-12-07T04:12:52;21.73;;;13.40;;
45548;SDS011;31270;48.328;10.096;2023-12-07T04:15:18;22.10;;;13.23;;
45548;SDS011;31270;48.328;10.096;2023-12-07T04:17:44;25.83;;;13.80;;
45548;SDS011;31270;48.328;10.096;2023-12-07T04:20:10;29.67;;;15.93;;
45548;SDS011;31270;48.328;10.096;2023-12-07T04:22:37;24.43;;;14.67;;
45548;SDS011;31270;48.328;10.096;2023-12-07T04:25:02;22.53;;;14.50;;
45548;SDS011;31270;48.328;10.096;2023-12-07T04:27:28;23.70;;;14.03;;
45548;SDS011;31270;48.328;10.096;2023-12-07T04:29:54;23.83;;;13.33;;
45548;SDS011;31270;48.328;10.096;2023-12-07T04:32:19;21.50;;;13.87;;
45548;SDS011;31270;48.328;10.096;2023-12-07T04:34:45;22.20;;;13.47;;
45548;SDS011;31270;48.328;10.096;2023-12-07T04:37:10;22.50;;;13.03;;
45548;SDS011;31270;48.328;10.096;2023-12-07T04:39:36;21.50;;;12.97;;
45548;SDS011;31270;48.328;10.096;2023-12-07T04:42:02;23.70;;;14.03;;
45548;SDS011;31270;48.328;10.096;2023-12-07T04:44:28;25.47;;;14.90;;
45548;SDS011;31270;48.328;10.096;2023-12-07T04:46:53;22.63;;;14.27;;
45548;SDS011;31270;48.328;10.096;2023-12-07T04:49:19;24.17;;;13.83;;
45548;SDS011;31270;48.328;10.096;2023-12-07T04:51:45;24.90;;;14.23;;
45548;SDS011;31270;48.328;10.096;2023-12-07T04:54:12;26.83;;;15.73;;
45548;SDS011;31270;48.328;10.096;2023-12-07T04:56:42;28.50;;;15.03;;
45548;SDS011;31270;48.328;10.096;2023-12-07T04:59:11;24.87;;;14.60;;
45548;SDS011;31270;48.328;10.096;2023-12-07T05:01:37;30.33;;;16.90;;
45548;SDS011;31270;48.328;10.096;2023-12-07T05:04:03;28.30;;;16.43;;
45548;SDS011;31270;48.328;10.096;2023-12-07T05:06:29;29.23;;;16.00;;
45548;SDS011;31270;48.328;10.096;2023-12-07T05:08:56;26.10;;;15.87;;
45548;SDS011;31270;48.328;10.096;2023-12-07T05:11:21;25.67;;;15.63;;
45548;SDS011;31270;48.328;10.096;2023-12-07T05:13:47;27.53;;;15.33;;
45548;SDS011;31270;48.328;10.096;2023-12-07T05:16:13;27.60;;;16.13;;
45548;SDS011;31270;48.328;10.096;2023-12-07T05:18:39;30.83;;;16.73;;
45548;SDS011;31270;48.328;10.096;2023-12-07T05:21:05;32.20;;;15.87;;
45548;SDS011;31270;48.328;10.096;2023-12-07T05:23:31;26.27;;;15.57;;
45548;SDS011;31270;48.328;10.096;2023-12-07T05:25:56;27.23;;;15.80;;
45548;SDS011;31270;48.328;10.096;2023-12-07T05:28:22;26.87;;;16.50;;
45548;SDS011;31270;48.328;10.096;2023-12-07T05:30:49;32.73;;;16.80;;
45548;SDS011;31270;48.328;10.096;2023-12-07T05:33:14;28.60;;;16.07;;
45548;SDS011;31270;48.328;10.096;2023-12-07T05:35:41;26.43;;;15.47;;
45548;SDS011;31270;48.328;10.096;2023-12-07T05:38:06;24.70;;;15.30;;
45548;SDS011;31270;48.328;10.096;2023-12-07T05:40:32;26.80;;;16.87;;
45548;SDS011;31270;48.328;10.096;2023-12-07T05:42:58;29.83;;;18.20;;
45548;SDS011;31270;48.328;10.096;2023-12-07T05:45:24;28.63;;;18.20;;
45548;SDS011;31270;48.328;10.096;2023-12-07T05:47:51;28.93;;;19.87;;
45548;SDS011;31270;48.328;10.096;2023-12-07T05:50:16;29.53;;;18.70;;
45548;SDS011;31270;48.328;10.096;2023-12-07T05:52:42;27.57;;;18.03;;
45548;SDS011;31270;48.328;10.096;2023-12-07T05:55:09;27.17;;;16.57;;
45548;SDS011;31270;48.328;10.096;2023-12-07T05:57:34;51.10;;;25.97;;
45548;SDS011;31270;48.328;10.096;2023-12-07T06:00:00;100.07;;;53.13;;
45548;SDS011;31270;48.328;10.096;2023-12-07T06:02:26;46.67;;;27.53;;
45548;SDS011;31270;48.328;10.096;2023-12-07T06:04:52;42.33;;;24.53;;
45548;SDS011;31270;48.328;10.096;2023-12-07T06:07:18;43.70;;;24.93;;
45548;SDS011;31270;48.328;10.096;2023-12-07T06:09:43;36.30;;;19.80;;
45548;SDS011;31270;48.328;10.096;2023-12-07T06:12:09;26.30;;;15.97;;
45548;SDS011;31270;48.328;10.096;2023-12-07T06:14:34;26.90;;;16.17;;
45548;SDS011;31270;48.328;10.096;2023-12-07T06:17:00;24.43;;;15.30;;
45548;SDS011;31270;48.328;10.096;2023-12-07T06:19:26;26.53;;;14.83;;
45548;SDS011;31270;48.328;10.096;2023-12-07T06:21:52;27.70;;;15.50;;
45548;SDS011;31270;48.328;10.096;2023-12-07T06:24:17;27.07;;;15.17;;
45548;SDS011;31270;48.328;10.096;2023-12-07T06:26:43;30.03;;;15.90;;
45548;SDS011;31270;48.328;10.096;2023-12-07T06:29:08;28.73;;;16.37;;
45548;SDS011;31270;48.328;10.096;2023-12-07T06:31:44;27.30;;;15.83;;
45548;SDS011;31270;48.328;10.096;2023-12-07T06:34:10;28.40;;;15.77;;
45548;SDS011;31270;48.328;10.096;2023-12-07T06:36:36;28.63;;;15.93;;
45548;SDS011;31270;48.328;10.096;2023-12-07T06:39:02;32.70;;;16.30;;
45548;SDS011;31270;48.328;10.096;2023-12-07T06:41:30;27.80;;;15.53;;
45548;SDS011;31270;48.328;10.096;2023-12-07T06:43:56;29.87;;;15.60;;
45548;SDS011;31270;48.328;10.096;2023-12-07T06:46:21;27.97;;;15.93;;
45548;SDS011;31270;48.328;10.096;2023-12-07T06:48:47;30.73;;;17.87;;
45548;SDS011;31270;48.328;10.096;2023-12-07T06:51:12;36.97;;;20.10;;
45548;SDS011;31270;48.328;10.096;2023-12-07T06:53:39;30.53;;;16.70;;
45548;SDS011;31270;48.328;10.096;2023-12-07T06:56:06;27.93;;;17.10;;
45548;SDS011;31270;48.328;10.096;2023-12-07T06:58:32;26.07;;;15.27;;
45548;SDS011;31270;48.328;10.096;2023-12-07T07:00:58;26.83;;;14.90;;
45548;SDS011;31270;48.328;10.096;2023-12-07T07:03:24;26.33;;;15.33;;
45548;SDS011;31270;48.328;10.096;2023-12-07T07:05:50;33.30;;;15.57;;
45548;SDS011;31270;48.328;10.096;2023-12-07T07:08:15;25.17;;;15.53;;
45548;SDS011;31270;48.328;10.096;2023-12-07T07:10:41;30.23;;;17.23;;
45548;SDS011;31270;48.328;10.096;2023-12-07T07:13:09;27.17;;;15.33;;
45548;SDS011;31270;48.328;10.096;2023-12-07T07:15:35;29.97;;;15.60;;
45548;SDS011;31270;48.328;10.096;2023-12-07T07:18:00;27.97;;;15.53;;
45548;SDS011;31270;48.328;10.096;2023-12-07T07:20:26;29.00;;;15.73;;
45548;SDS011;31270;48.328;10.096;2023-12-07T07:22:54;28.80;;;15.93;;
45548;SDS011;31270;48.328;10.096;2023-12-07T07:25:20;24.73;;;14.53;;
45548;SDS011;31270;48.328;10.096;2023-12-07T07:27:52;23.87;;;14.57;;
45548;SDS011;31270;48.328;10.096;2023-12-07T07:30:19;26.63;;;14.93;;
45548;SDS011;31270;48.328;10.096;2023-12-07T07:32:46;28.07;;;14.97;;
45548;SDS011;31270;48.328;10.096;2023-12-07T07:35:11;25.23;;;15.03;;
45548;SDS011;31270;48.328;10.096;2023-12-07T07:37:40;31.63;;;18.97;;
45548;SDS011;31270;48.328;10.096;2023-12-07T07:40:09;35.43;;;19.20;;
45548;SDS011;31270;48.328;10.096;2023-12-07T07:42:37;34.00;;;19.57;;
45548;SDS011;31270;48.328;10.096;2023-12-07T07:45:07;31.63;;;19.17;;
45548;SDS011;31270;48.328;10.096;2023-12-07T07:47:35;30.53;;;19.03;;
45548;SDS011;31270;48.328;10.096;2023-12-07T07:50:00;32.77;;;18.67;;
45548;SDS011;31270;48.328;10.096;2023-12-07T07:52:31;33.03;;;19.67;;
45548;SDS011;31270;48.328;10.096;2023-12-07T07:54:57;33.60;;;18.70;;
45548;SDS011;31270;48.328;10.096;2023-12-07T07:57:24;33.67;;;18.70;;
45548;SDS011;31270;48.328;10.096;2023-12-07T07:59:49;32.10;;;18.97;;
45548;SDS011;31270;48.328;10.096;2023-12-07T08:02:16;36.50;;;20.63;;
45548;SDS011;31270;48.328;10.096;2023-12-07T08:04:41;31.67;;;19.23;;
45548;SDS011;31270;48.328;10.096;2023-12-07T08:07:07;32.00;;;19.80;;
45548;SDS011;31270;48.328;10.096;2023-12-07T08:09:35;34.67;;;21.37;;
45548;SDS011;31270;48.328;10.096;2023-12-07T08:12:01;36.97;;;21.77;;
45548;SDS011;31270;48.328;10.096;2023-12-07T08:14:30;37.17;;;22.10;;
45548;SDS011;31270;48.328;10.096;2023-12-07T08:16:55;40.87;;;20.87;;
45548;SDS011;31270;48.328;10.096;2023-12-07T08:19:21;36.07;;;18.87;;
45548;SDS011;31270;48.328;10.096;2023-12-07T08:21:47;32.97;;;18.77;;
45548;SDS011;31270;48.328;10.096;2023-12-07T08:24:13;31.13;;;17.50;;
45548;SDS011;31270;48.328;10.096;2023-12-07T08:26:39;34.67;;;17.50;;
45548;SDS011;31270;48.328;10.096;2023-12-07T08:29:06;29.07;;;15.17;;
45548;SDS011;31270;48.328;10.096;2023-12-07T08:31:31;28.90;;;15.50;;
45548;SDS011;31270;48.328;10.096;2023-12-07T08:33:57;30.20;;;15.87;;
45548;SDS011;31270;48.328;10.096;2023-12-07T08:36:23;29.87;;;15.17;;
45548;SDS011;31270;48.328;10.096;2023-12-07T08:38:49;27.63;;;15.97;;
45548;SDS011;31270;48.328;10.096;2023-12-07T08:41:15;26.63;;;15.83;;
45548;SDS011;31270;48.328;10.096;2023-12-07T08:43:41;27.33;;;15.97;;
45548;SDS011;31270;48.328;10.096;2023-12-07T08:46:07;28.97;;;16.03;;
45548;SDS011;31270;48.328;10.096;2023-12-07T08:48:32;29.07;;;16.00;;
45548;SDS011;31270;48.328;10.096;2023-12-07T08:50:59;27.30;;;17.13;;
45548;SDS011;31270;48.328;10.096;2023-12-07T08:53:25;28.70;;;17.53;;
45548;SDS011;31270;48.328;10.096;2023-12-07T08:55:51;32.03;;;18.93;;
45548;SDS011;31270;48.328;10.096;2023-12-07T08:58:18;30.63;;;18.70;;
45548;SDS011;31270;48.328;10.096;2023-12-07T09:00:43;30.17;;;19.23;;
45548;SDS011;31270;48.328;10.096;2023-12-07T09:03:09;27.50;;;18.60;;
45548;SDS011;31270;48.328;10.096;2023-12-07T09:05:35;28.53;;;16.47;;
45548;SDS011;31270;48.328;10.096;2023-12-07T09:08:03;26.33;;;15.93;;
45548;SDS011;31270;48.328;10.096;2023-12-07T09:10:30;28.90;;;15.67;;
45548;SDS011;31270;48.328;10.096;2023-12-07T09:12:56;28.80;;;16.10;;
45548;SDS011;31270;48.328;10.096;2023-12-07T09:15:21;28.60;;;16.57;;
45548;SDS011;31270;48.328;10.096;2023-12-07T09:17:48;31.57;;;18.33;;
45548;SDS011;31270;48.328;10.096;2023-12-07T09:20:14;28.33;;;17.70;;
45548;SDS011;31270;48.328;10.096;2023-12-07T09:22:40;30.60;;;17.53;;
45548;SDS011;31270;48.328;10.096;2023-12-07T09:25:10;30.17;;;17.23;;
45548;SDS011;31270;48.328;10.096;2023-12-07T09:27:36;28.13;;;16.70;;
45548;SDS011;31270;48.328;10.096;2023-12-07T09:30:06;28.83;;;17.60;;
45548;SDS011;31270;48.328;10.096;2023-12-07T09:32:36;28.87;;;17.23;;
45548;SDS011;31270;48.328;10.096;2023-12-07T09:35:06;31.87;;;19.10;;
45548;SDS011;31270;48.328;10.096;2023-12-07T09:37:33;29.13;;;16.90;;
45548;SDS011;31270;48.328;10.096;2023-12-07T09:39:59;24.50;;;15.07;;
45548;SDS011;31270;48.328;10.096;2023-12-07T09:42:26;25.40;;;15.53;;
45548;SDS011;31270;48.328;10.096;2023-12-07T09:44:52;31.40;;;17.53;;
45548;SDS011;31270;48.328;10.096;2023-12-07T09:47:22;31.23;;;18.73;;
45548;SDS011;31270;48.328;10.096;2023-12-07T09:49:50;32.30;;;18.53;;
45548;SDS011;31270;48.328;10.096;2023-12-07T09:52:15;29.10;;;17.43;;
45548;SDS011;31270;48.328;10.096;2023-12-07T09:54:43;32.07;;;19.73;;
45548;SDS011;31270;48.328;10.096;2023-12-07T09:57:10;30.30;;;18.77;;
45548;SDS011;31270;48.328;10.096;2023-12-07T09:59:37;27.23;;;17.40;;
45548;SDS011;31270;48.328;10.096;2023-12-07T10:02:05;27.50;;;17.13;;
45548;SDS011;31270;48.328;10.096;2023-12-07T10:04:34;32.43;;;15.37;;
45548;SDS011;31270;48.328;10.096;2023-12-07T10:07:01;27.23;;;15.47;;
45548;SDS011;31270;48.328;10.096;2023-12-07T10:09:27;30.83;;;16.63;;
45548;SDS011;31270;48.328;10.096;2023-12-07T10:12:05;25.67;;;16.07;;
45548;SDS011;31270;48.328;10.096;2023-12-07T10:14:31;29.50;;;16.27;;
45548;SDS011;31270;48.328;10.096;2023-12-07T10:16:58;26.63;;;15.30;;
45548;SDS011;31270;48.328;10.096;2023-12-07T10:19:24;27.03;;;16.67;;
45548;SDS011;31270;48.328;10.096;2023-12-07T10:21:52;25.77;;;15.53;;
45548;SDS011;31270;48.328;10.096;2023-12-07T10:24:19;27.47;;;14.87;;
45548;SDS011;31270;48.328;10.096;2023-12-07T10:26:46;25.70;;;15.13;;
45548;SDS011;31270;48.328;10.096;2023-12-07T10:29:13;26.27;;;15.70;;
45548;SDS011;31270;48.328;10.096;2023-12-07T10:31:39;23.07;;;14.57;;
45548;SDS011;31270;48.328;10.096;2023-12-07T10:34:04;29.93;;;14.77;;
45548;SDS011;31270;48.328;10.096;2023-12-07T10:36:30;24.17;;;14.73;;
45548;SDS011;31270;48.328;10.096;2023-12-07T10:38:57;27.47;;;15.27;;
45548;SDS011;31270;48.328;10.096;2023-12-07T10:41:24;22.70;;;14.73;;
45548;SDS011;31270;48.328;10.096;2023-12-07T10:43:54;23.87;;;15.47;;
45548;SDS011;31270;48.328;10.096;2023-12-07T10:46:24;24.53;;;15.23;;
45548;SDS011;31270;48.328;10.096;2023-12-07T10:48:55;28.33;;;15.70;;
45548;SDS011;31270;48.328;10.096;2023-12-07T10:54:04;27.23;;;16.87;;
45548;SDS011;31270;48.328;10.096;2023-12-07T10:56:35;30.07;;;16.87;;
45548;SDS011;31270;48.328;10.096;2023-12-07T10:59:10;30.30;;;16.90;;
45548;SDS011;31270;48.328;10.096;2023-12-07T11:01:41;29.30;;;17.07;;
45548;SDS011;31270;48.328;10.096;2023-12-07T11:04:11;25.40;;;16.43;;
45548;SDS011;31270;48.328;10.096;2023-12-07T11:06:42;33.57;;;16.13;;
45548;SDS011;31270;48.328;10.096;2023-12-07T11:09:13;24.63;;;15.07;;
45548;SDS011;31270;48.328;10.096;2023-12-07T11:12:01;27.33;;;16.33;;
45548;SDS011;31270;48.328;10.096;2023-12-07T11:14:34;26.63;;;15.57;;
45548;SDS011;31270;48.328;10.096;2023-12-07T11:16:59;25.97;;;14.83;;
45548;SDS011;31270;48.328;10.096;2023-12-07T11:22:07;25.03;;;16.00;;
45548;SDS011;31270;48.328;10.096;2023-12-07T11:24:38;25.13;;;16.03;;
45548;SDS011;31270;48.328;10.096;2023-12-07T11:27:22;27.03;;;16.57;;
45548;SDS011;31270;48.328;10.096;2023-12-07T11:29:49;24.83;;;15.40;;
45548;SDS011;31270;48.328;10.096;2023-12-07T11:32:17;24.47;;;14.97;;
45548;SDS011;31270;48.328;10.096;2023-12-07T11:34:43;24.20;;;14.37;;
45548;SDS011;31270;48.328;10.096;2023-12-07T11:37:10;22.53;;;14.87;;
45548;SDS011;31270;48.328;10.096;2023-12-07T11:39:40;28.07;;;15.70;;
45548;SDS011;31270;48.328;10.096;2023-12-07T11:42:14;28.07;;;15.50;;
45548;SDS011;31270;48.328;10.096;2023-12-07T11:44:42;25.87;;;15.70;;
45548;SDS011;31270;48.328;10.096;2023-12-07T11:47:15;26.93;;;14.97;;
45548;SDS011;31270;48.328;10.096;2023-12-07T11:49:42;20.20;;;13.20;;
45548;SDS011;31270;48.328;10.096;2023-12-07T11:52:20;23.33;;;13.53;;
45548;SDS011;31270;48.328;10.096;2023-12-07T11:54:46;19.03;;;12.47;;
45548;SDS011;31270;48.328;10.096;2023-12-07T11:57:13;18.60;;;12.80;;
45548;SDS011;31270;48.328;10.096;2023-12-07T11:59:39;20.73;;;12.57;;
45548;SDS011;31270;48.328;10.096;2023-12-07T12:02:06;20.77;;;12.63;;
45548;SDS011;31270;48.328;10.096;2023-12-07T12:04:31;18.73;;;12.40;;
45548;SDS011;31270;48.328;10.096;2023-12-07T12:06:57;17.90;;;11.60;;
45548;SDS011;31270;48.328;10.096;2023-12-07T12:09:25;21.53;;;11.77;;
45548;SDS011;31270;48.328;10.096;2023-12-07T12:11:54;19.87;;;12.00;;
45548;SDS011;31270;48.328;10.096;2023-12-07T12:14:28;21.53;;;12.47;;
45548;SDS011;31270;48.328;10.096;2023-12-07T12:16:54;20.23;;;11.50;;
45548;SDS011;31270;48.328;10.096;2023-12-07T12:19:22;24.27;;;12.60;;
45548;SDS011;31270;48.328;10.096;2023-12-07T12:21:52;17.20;;;11.77;;
45548;SDS011;31270;48.328;10.096;2023-12-07T12:24:20;17.80;;;11.87;;
45548;SDS011;31270;48.328;10.096;2023-12-07T12:26:45;18.23;;;10.70;;
45548;SDS011;31270;48.328;10.096;2023-12-07T12:29:12;15.87;;;11.20;;
45548;SDS011;31270;48.328;10.096;2023-12-07T12:31:38;17.60;;;10.80;;
45548;SDS011;31270;48.328;10.096;2023-12-07T12:34:07;16.20;;;10.47;;
45548;SDS011;31270;48.328;10.096;2023-12-07T12:36:34;16.30;;;10.70;;
45548;SDS011;31270;48.328;10.096;2023-12-07T12:39:00;16.00;;;9.53;;
45548;SDS011;31270;48.328;10.096;2023-12-07T12:41:27;18.50;;;10.40;;
45548;SDS011;31270;48.328;10.096;2023-12-07T12:43:56;17.20;;;10.17;;
45548;SDS011;31270;48.328;10.096;2023-12-07T12:46:25;20.50;;;10.33;;
45548;SDS011;31270;48.328;10.096;2023-12-07T12:48:55;19.27;;;11.63;;
45548;SDS011;31270;48.328;10.096;2023-12-07T12:51:25;15.17;;;11.13;;
45548;SDS011;31270;48.328;10.096;2023-12-07T12:53:52;17.67;;;11.07;;
45548;SDS011;31270;48.328;10.096;2023-12-07T12:56:18;17.20;;;10.43;;
45548;SDS011;31270;48.328;10.096;2023-12-07T12:58:49;19.00;;;10.93;;
45548;SDS011;31270;48.328;10.096;2023-12-07T13:01:16;16.70;;;9.90;;
45548;SDS011;31270;48.328;10.096;2023-12-07T13:03:43;11.27;;;8.03;;
45548;SDS011;31270;48.328;10.096;2023-12-07T13:06:10;13.13;;;8.13;;
45548;SDS011;31270;48.328;10.096;2023-12-07T13:08:37;9.23;;;6.60;;
45548;SDS011;31270;48.328;10.096;2023-12-07T13:11:03;7.70;;;5.57;;
45548;SDS011;31270;48.328;10.096;2023-12-07T13:13:28;8.73;;;6.03;;
45548;SDS011;31270;48.328;10.096;2023-12-07T13:15:54;6.93;;;5.23;;
45548;SDS011;31270;48.328;10.096;2023-12-07T13:18:20;7.97;;;4.77;;
45548;SDS011;31270;48.328;10.096;2023-12-07T13:20:46;6.80;;;4.90;;
45548;SDS011;31270;48.328;10.096;2023-12-07T13:23:11;7.43;;;5.20;;
45548;SDS011;31270;48.328;10.096;2023-12-07T13:25:37;11.03;;;5.10;;
45548;SDS011;31270;48.328;10.096;2023-12-07T13:28:05;9.60;;;5.30;;
45548;SDS011;31270;48.328;10.096;2023-12-07T13:30:32;7.10;;;5.37;;
45548;SDS011;31270;48.328;10.096;2023-12-07T13:33:00;7.80;;;4.80;;
45548;SDS011;31270;48.328;10.096;2023-12-07T13:35:27;9.93;;;5.77;;
45548;SDS011;31270;48.328;10.096;2023-12-07T13:37:53;5.63;;;5.03;;
45548;SDS011;31270;48.328;10.096;2023-12-07T13:40:19;7.27;;;5.27;;
45548;SDS011;31270;48.328;10.096;2023-12-07T13:42:47;7.47;;;5.20;;
45548;SDS011;31270;48.328;10.096;2023-12-07T13:45:14;7.93;;;4.90;;
45548;SDS011;31270;48.328;10.096;2023-12-07T13:47:41;11.77;;;4.97;;
45548;SDS011;31270;48.328;10.096;2023-12-07T13:50:06;10.53;;;5.30;;
45548;SDS011;31270;48.328;10.096;2023-12-07T13:52:32;8.80;;;5.10;;
45548;SDS011;31270;48.328;10.096;2023-12-07T13:54:58;10.97;;;5.67;;
45548;SDS011;31270;48.328;10.096;2023-12-07T13:57:24;8.30;;;5.47;;
45548;SDS011;31270;48.328;10.096;2023-12-07T13:59:50;7.60;;;5.67;;
45548;SDS011;31270;48.328;10.096;2023-12-07T14:02:16;8.37;;;5.90;;
45548;SDS011;31270;48.328;10.096;2023-12-07T14:04:42;7.87;;;5.60;;
45548;SDS011;31270;48.328;10.096;2023-12-07T14:07:12;8.33;;;5.93;;
45548;SDS011;31270;48.328;10.096;2023-12-07T14:09:43;7.17;;;5.57;;
45548;SDS011;31270;48.328;10.096;2023-12-07T14:12:11;10.07;;;5.77;;
45548;SDS011;31270;48.328;10.096;2023-12-07T14:14:39;6.90;;;5.33;;
45548;SDS011;31270;48.328;10.096;2023-12-07T14:17:05;8.47;;;5.60;;